Time;durP1;ratioP1;P1;durP2;ratioP2;P2;SDS_P1;SDS_P2;PMS_P1;PMS_P2;Temp;Humidity;BMP_temperature;BMP_pressure;BME280_temperature;BME280_humidity;BME280_pressure;Samples;Min_cycle;Max_cycle;Signal;HPM_P1;HPM_P2
2022/05/01 00:01:04;;;;;;;13.10;7.00;;;;;;;;;;5013665;28;20152;-62
2022/05/01 00:03:34;;;;;;;11.85;6.88;;;;;;;;;;5015318;28;20083;-62
2022/05/01 00:06:04;;;;;;;9.38;6.60;;;;;;;;;;5010543;28;20049;-63
2022/05/01 00:08:34;;;;;;;14.45;6.70;;;;;;;;;;5015424;28;20376;-62
2022/05/01 00:11:00;;;;;;;12.02;6.63;;;;;;;;;;5031596;28;20502;-63
2022/05/01 00:13:26;;;;;;;10.60;6.60;;;;;;;;;;5027197;28;20032;-62
2022/05/01 00:15:52;;;;;;;13.60;6.82;;;;;;;;;;5049999;28;20171;-64
2022/05/01 00:18:18;;;;;;;11.82;7.07;;;;;;;;;;5039971;28;20029;-62
2022/05/01 00:20:44;;;;;;;10.40;6.43;;;;;;;;;;5011400;28;20037;-62
2022/05/01 00:23:10;;;;;;;10.63;6.32;;;;;;;;;;5013290;28;20121;-62
2022/05/01 00:25:38;;;;;;;9.55;6.47;;;;;;;;;;5011895;28;20034;-63
2022/05/01 00:28:03;;;;;;;13.55;6.70;;;;;;;;;;5011199;28;20040;-63
2022/05/01 00:30:29;;;;;;;11.10;6.88;;;;;;;;;;5016130;28;20022;-63
2022/05/01 00:38:25;;;;;;;10.10;6.60;;;;;;;;;;5032488;28;20111;-63
2022/05/01 00:40:51;;;;;;;11.88;7.00;;;;;;;;;;5028291;28;20076;-63
2022/05/01 00:43:17;;;;;;;11.15;6.80;;;;;;;;;;5029333;28;20041;-63
2022/05/01 00:45:43;;;;;;;11.00;6.53;;;;;;;;;;5028043;28;20037;-63
2022/05/01 00:48:08;;;;;;;12.18;6.72;;;;;;;;;;5017702;28;20034;-64
2022/05/01 00:50:34;;;;;;;11.90;6.57;;;;;;;;;;5008040;28;20306;-63
2022/05/01 00:53:01;;;;;;;11.95;6.82;;;;;;;;;;5011251;28;20110;-64
2022/05/01 00:55:26;;;;;;;13.98;6.63;;;;;;;;;;5013866;28;20080;-63
2022/05/01 00:57:52;;;;;;;11.38;7.07;;;;;;;;;;5039896;28;20029;-63
2022/05/01 01:00:19;;;;;;;11.18;6.85;;;;;;;;;;5041213;28;20252;-63
2022/05/01 01:02:50;;;;;;;12.90;7.15;;;;;;;;;;5040903;28;20033;-63
2022/05/01 01:05:25;;;;;;;12.73;7.00;;;;;;;;;;5018720;28;20033;-62
2022/05/01 01:07:50;;;;;;;12.02;6.97;;;;;;;;;;5037583;28;20033;-64
2022/05/01 01:10:28;;;;;;;11.57;7.05;;;;;;;;;;5026359;28;20924;-62
2022/05/01 01:12:53;;;;;;;12.20;7.15;;;;;;;;;;5013123;28;20030;-63
2022/05/01 01:15:20;;;;;;;10.73;6.78;;;;;;;;;;5014162;28;20029;-62
2022/05/01 01:17:46;;;;;;;11.98;6.97;;;;;;;;;;5034837;28;20041;-63
2022/05/01 01:20:15;;;;;;;9.27;6.63;;;;;;;;;;5014314;28;20065;-63
2022/05/01 01:22:44;;;;;;;11.55;7.50;;;;;;;;;;5015789;28;20527;-63
2022/05/01 01:25:11;;;;;;;12.48;7.25;;;;;;;;;;5024124;28;20050;-63
2022/05/01 01:27:40;;;;;;;10.48;6.72;;;;;;;;;;5013326;28;20033;-63
2022/05/01 01:32:52;;;;;;;10.27;6.75;;;;;;;;;;5054080;28;20032;-63
2022/05/01 01:35:23;;;;;;;11.80;7.30;;;;;;;;;;5024586;28;20041;-63
2022/05/01 01:37:50;;;;;;;11.13;7.00;;;;;;;;;;5013878;28;20379;-63
2022/05/01 01:40:25;;;;;;;11.93;6.82;;;;;;;;;;5030626;28;20494;-63
2022/05/01 01:42:54;;;;;;;13.07;6.82;;;;;;;;;;5034021;28;20033;-63
2022/05/01 01:45:20;;;;;;;10.85;6.93;;;;;;;;;;5042121;28;20043;-63
2022/05/01 01:47:49;;;;;;;11.55;7.40;;;;;;;;;;5037216;28;20073;-63
2022/05/01 01:50:16;;;;;;;9.48;6.75;;;;;;;;;;5027573;28;20033;-63
2022/05/01 01:52:49;;;;;;;11.00;6.90;;;;;;;;;;5031645;28;20088;-63
2022/05/01 01:55:18;;;;;;;15.20;7.20;;;;;;;;;;5028390;28;20073;-63
2022/05/01 01:57:48;;;;;;;14.32;7.68;;;;;;;;;;5027003;28;20055;-63
2022/05/01 02:00:14;;;;;;;12.05;7.38;;;;;;;;;;5029524;28;20037;-63
2022/05/01 02:02:39;;;;;;;10.55;7.28;;;;;;;;;;5036669;28;20167;-63
2022/05/01 02:05:06;;;;;;;11.05;7.20;;;;;;;;;;5033922;28;20029;-63
2022/05/01 02:07:33;;;;;;;11.18;7.03;;;;;;;;;;5026780;28;20116;-63
2022/05/01 02:09:59;;;;;;;12.35;7.88;;;;;;;;;;5033526;28;20120;-63
2022/05/01 02:12:25;;;;;;;11.15;7.43;;;;;;;;;;5033897;28;20033;-62
2022/05/01 02:14:50;;;;;;;14.20;7.03;;;;;;;;;;5033409;28;20175;-63
2022/05/01 02:17:16;;;;;;;12.55;7.53;;;;;;;;;;5042612;28;20127;-63
2022/05/01 02:19:42;;;;;;;13.55;7.47;;;;;;;;;;5016176;28;20188;-63
2022/05/01 02:22:08;;;;;;;11.73;7.20;;;;;;;;;;5033078;28;20025;-63
2022/05/01 02:24:34;;;;;;;11.75;7.00;;;;;;;;;;5029255;28;20139;-63
2022/05/01 02:27:00;;;;;;;10.65;7.03;;;;;;;;;;5037578;28;20493;-63
2022/05/01 02:29:26;;;;;;;11.20;7.68;;;;;;;;;;5026665;28;20038;-63
2022/05/01 02:31:55;;;;;;;12.48;7.55;;;;;;;;;;5024139;28;20034;-63
2022/05/01 02:34:22;;;;;;;10.35;7.03;;;;;;;;;;5029482;28;20075;-62
2022/05/01 02:36:53;;;;;;;11.10;7.13;;;;;;;;;;5049452;28;20549;-63
2022/05/01 02:39:19;;;;;;;12.77;7.53;;;;;;;;;;5041922;28;20029;-64
2022/05/01 02:41:45;;;;;;;12.90;7.63;;;;;;;;;;5052117;28;20035;-63
2022/05/01 02:44:11;;;;;;;13.07;7.90;;;;;;;;;;5017800;28;20042;-63
2022/05/01 02:46:40;;;;;;;11.02;7.18;;;;;;;;;;5020955;28;20033;-63
2022/05/01 02:49:05;;;;;;;10.90;7.43;;;;;;;;;;5027081;28;20033;-62
2022/05/01 02:51:34;;;;;;;12.95;7.57;;;;;;;;;;5031509;28;20040;-62
2022/05/01 02:54:01;;;;;;;13.65;7.97;;;;;;;;;;5026627;28;20493;-63
2022/05/01 02:56:44;;;;;;;11.52;8.20;;;;;;;;;;5031479;28;20033;-62
2022/05/01 02:59:10;;;;;;;12.98;8.07;;;;;;;;;;5029548;28;20025;-62
2022/05/01 03:01:38;;;;;;;12.20;7.80;;;;;;;;;;5024818;28;20057;-62
2022/05/01 03:04:04;;;;;;;13.65;8.25;;;;;;;;;;5040605;28;20489;-62
2022/05/01 03:06:32;;;;;;;14.57;7.90;;;;;;;;;;5017932;28;20054;-62
2022/05/01 03:08:57;;;;;;;11.65;7.47;;;;;;;;;;5012775;28;20034;-63
2022/05/01 03:11:23;;;;;;;14.93;7.70;;;;;;;;;;5024618;28;20049;-62
2022/05/01 03:13:48;;;;;;;13.93;7.50;;;;;;;;;;5030621;28;20093;-63
2022/05/01 03:16:14;;;;;;;13.77;8.32;;;;;;;;;;5029478;28;20038;-63
2022/05/01 03:24:08;;;;;;;12.52;8.15;;;;;;;;;;5047401;28;20059;-63
2022/05/01 03:26:34;;;;;;;13.90;7.90;;;;;;;;;;5011596;28;20038;-64
2022/05/01 03:28:59;;;;;;;11.27;7.65;;;;;;;;;;5012448;28;20030;-63
2022/05/01 03:31:27;;;;;;;13.07;7.20;;;;;;;;;;5024351;28;20033;-62
2022/05/01 03:33:53;;;;;;;14.77;8.30;;;;;;;;;;5014485;28;20041;-62
2022/05/01 03:36:18;;;;;;;12.55;7.95;;;;;;;;;;5029306;28;20025;-62
2022/05/01 03:38:50;;;;;;;13.45;8.05;;;;;;;;;;5012272;28;20043;-62
2022/05/01 03:41:17;;;;;;;13.30;7.78;;;;;;;;;;5015480;28;20034;-62
2022/05/01 03:43:43;;;;;;;12.77;8.30;;;;;;;;;;5014169;28;20041;-62
2022/05/01 03:46:10;;;;;;;13.95;8.88;;;;;;;;;;5020598;28;20033;-62
2022/05/01 03:48:35;;;;;;;13.57;9.00;;;;;;;;;;5031100;28;20033;-64
2022/05/01 03:51:02;;;;;;;12.85;8.10;;;;;;;;;;5040687;28;20104;-64
2022/05/01 03:53:27;;;;;;;12.43;8.35;;;;;;;;;;5049952;28;20058;-63
2022/05/01 03:55:53;;;;;;;14.02;8.48;;;;;;;;;;5028786;28;20459;-64
2022/05/01 03:58:19;;;;;;;14.40;8.23;;;;;;;;;;5024515;28;20033;-64
2022/05/01 04:00:47;;;;;;;19.65;8.60;;;;;;;;;;5030357;28;20044;-64
2022/05/01 04:03:16;;;;;;;15.07;8.73;;;;;;;;;;5023096;28;20038;-64
2022/05/01 04:05:42;;;;;;;13.52;8.20;;;;;;;;;;5018150;28;20036;-63
2022/05/01 04:08:08;;;;;;;12.88;8.60;;;;;;;;;;5015329;28;20041;-64
2022/05/01 04:10:40;;;;;;;12.82;8.57;;;;;;;;;;5025991;28;20060;-63
2022/05/01 04:13:06;;;;;;;11.23;7.68;;;;;;;;;;5030553;28;20037;-64
2022/05/01 04:15:31;;;;;;;13.45;8.95;;;;;;;;;;5023148;28;20407;-63
2022/05/01 04:17:57;;;;;;;12.95;7.95;;;;;;;;;;5031308;28;20033;-63
2022/05/01 04:20:24;;;;;;;13.35;8.63;;;;;;;;;;5039549;28;20034;-65
2022/05/01 04:22:49;;;;;;;15.02;8.60;;;;;;;;;;5039251;28;20703;-64
2022/05/01 04:25:19;;;;;;;14.15;9.05;;;;;;;;;;5033139;28;20121;-63
2022/05/01 04:27:47;;;;;;;13.57;8.75;;;;;;;;;;5029101;28;20033;-63
2022/05/01 04:30:14;;;;;;;16.55;8.60;;;;;;;;;;5046772;28;20029;-63
2022/05/01 04:32:49;;;;;;;14.10;9.02;;;;;;;;;;5039055;28;20025;-63
2022/05/01 04:35:40;;;;;;;18.95;9.52;;;;;;;;;;5046786;28;20036;-65
2022/05/01 04:38:07;;;;;;;15.57;8.70;;;;;;;;;;5034129;28;20479;-63
2022/05/01 04:40:34;;;;;;;14.10;8.77;;;;;;;;;;5021251;28;20040;-63
2022/05/01 04:43:10;;;;;;;14.60;8.85;;;;;;;;;;5030420;28;20026;-64
2022/05/01 04:45:39;;;;;;;13.70;8.90;;;;;;;;;;5036211;28;20037;-63
2022/05/01 04:48:05;;;;;;;15.15;8.82;;;;;;;;;;5034112;28;20034;-64
2022/05/01 04:50:31;;;;;;;15.15;8.68;;;;;;;;;;5050832;28;20037;-63
2022/05/01 04:53:00;;;;;;;15.85;8.68;;;;;;;;;;5053893;28;20055;-63
2022/05/01 04:55:25;;;;;;;14.18;8.75;;;;;;;;;;5050834;28;20072;-63
2022/05/01 04:57:51;;;;;;;16.45;8.77;;;;;;;;;;5033280;28;20663;-63
2022/05/01 05:00:19;;;;;;;12.68;8.80;;;;;;;;;;5017523;28;20033;-63
2022/05/01 05:02:48;;;;;;;14.13;8.68;;;;;;;;;;5048498;28;20505;-63
2022/05/01 05:05:14;;;;;;;14.30;8.95;;;;;;;;;;5038762;28;20053;-65
2022/05/01 05:07:40;;;;;;;13.63;8.23;;;;;;;;;;5041056;28;20102;-65
2022/05/01 05:10:08;;;;;;;13.95;8.48;;;;;;;;;;5036671;28;20036;-65
2022/05/01 05:12:34;;;;;;;13.07;8.18;;;;;;;;;;5039169;28;20123;-64
2022/05/01 05:15:00;;;;;;;13.75;8.43;;;;;;;;;;5049715;28;20024;-66
2022/05/01 05:17:28;;;;;;;14.02;9.18;;;;;;;;;;5028605;28;20069;-66
2022/05/01 05:19:54;;;;;;;15.73;8.68;;;;;;;;;;5031616;28;20889;-65
2022/05/01 05:22:20;;;;;;;12.68;8.38;;;;;;;;;;5054462;28;20057;-66
2022/05/01 05:24:45;;;;;;;13.43;8.65;;;;;;;;;;5040776;28;20076;-64
2022/05/01 05:27:12;;;;;;;13.43;8.55;;;;;;;;;;5021713;28;20126;-66
2022/05/01 05:29:38;;;;;;;12.93;8.25;;;;;;;;;;5043012;28;20039;-65
2022/05/01 05:32:04;;;;;;;12.93;7.93;;;;;;;;;;5054261;28;20037;-66
2022/05/01 05:34:29;;;;;;;12.27;8.05;;;;;;;;;;5033149;28;20494;-66
2022/05/01 05:36:55;;;;;;;12.73;7.70;;;;;;;;;;5046574;28;20029;-65
2022/05/01 05:39:20;;;;;;;16.00;7.82;;;;;;;;;;5052955;28;20044;-65
2022/05/01 05:41:45;;;;;;;12.48;7.75;;;;;;;;;;5050957;28;20048;-66
2022/05/01 05:44:11;;;;;;;11.82;7.72;;;;;;;;;;5049907;28;20462;-66
2022/05/01 05:46:37;;;;;;;10.30;6.97;;;;;;;;;;5047436;28;20032;-65
2022/05/01 05:49:02;;;;;;;11.73;7.35;;;;;;;;;;5054464;28;20064;-67
2022/05/01 05:51:28;;;;;;;9.38;6.78;;;;;;;;;;5031258;28;20430;-67
2022/05/01 05:53:54;;;;;;;10.02;6.95;;;;;;;;;;5046808;28;20028;-65
2022/05/01 05:56:20;;;;;;;11.40;6.50;;;;;;;;;;5053881;28;20078;-66
2022/05/01 05:58:46;;;;;;;9.88;6.50;;;;;;;;;;5039228;28;20032;-64
2022/05/01 06:01:11;;;;;;;10.38;6.53;;;;;;;;;;5051338;28;20485;-65
2022/05/01 06:03:38;;;;;;;11.30;6.90;;;;;;;;;;5048331;28;20078;-64
2022/05/01 06:06:03;;;;;;;11.45;7.32;;;;;;;;;;5050956;28;20029;-66
2022/05/01 06:08:29;;;;;;;11.50;7.05;;;;;;;;;;5022159;28;20032;-65
2022/05/01 06:10:54;;;;;;;11.27;6.63;;;;;;;;;;5045480;28;20115;-65
2022/05/01 06:13:20;;;;;;;11.25;7.57;;;;;;;;;;5050758;28;20078;-65
2022/05/01 06:15:46;;;;;;;12.52;6.95;;;;;;;;;;5040947;28;20033;-65
2022/05/01 06:18:11;;;;;;;9.93;6.93;;;;;;;;;;5051586;28;20060;-66
2022/05/01 06:20:37;;;;;;;12.65;7.25;;;;;;;;;;5043596;28;20486;-65
2022/05/01 06:23:02;;;;;;;10.68;7.25;;;;;;;;;;5016621;28;20065;-66
2022/05/01 06:25:28;;;;;;;11.82;7.55;;;;;;;;;;5025158;28;20024;-66
2022/05/01 06:27:54;;;;;;;13.10;7.35;;;;;;;;;;5026181;28;20167;-66
2022/05/01 06:30:19;;;;;;;10.05;6.57;;;;;;;;;;5030573;28;20033;-66
2022/05/01 06:32:45;;;;;;;12.15;7.82;;;;;;;;;;5023402;28;20029;-66
2022/05/01 06:35:11;;;;;;;11.95;7.72;;;;;;;;;;5032060;28;20116;-67
2022/05/01 06:37:37;;;;;;;12.15;7.65;;;;;;;;;;5032363;28;20113;-65
2022/05/01 06:40:04;;;;;;;11.82;7.30;;;;;;;;;;5030491;28;20034;-66
2022/05/01 06:42:31;;;;;;;10.82;7.65;;;;;;;;;;5031972;28;20037;-67
2022/05/01 06:44:57;;;;;;;12.15;7.65;;;;;;;;;;5029568;28;20029;-66
2022/05/01 06:47:22;;;;;;;12.25;7.28;;;;;;;;;;5032492;28;20052;-66
2022/05/01 06:49:48;;;;;;;11.02;7.07;;;;;;;;;;5032169;28;20168;-65
2022/05/01 06:52:18;;;;;;;12.23;7.60;;;;;;;;;;5030691;28;20026;-66
2022/05/01 06:54:46;;;;;;;13.07;7.60;;;;;;;;;;5032315;28;20039;-66
2022/05/01 06:57:13;;;;;;;11.15;7.03;;;;;;;;;;5042226;28;20120;-65
2022/05/01 06:59:38;;;;;;;11.48;7.15;;;;;;;;;;5051010;28;20475;-65
2022/05/01 07:02:04;;;;;;;10.95;7.32;;;;;;;;;;5033428;28;20079;-66
2022/05/01 07:04:29;;;;;;;11.10;7.22;;;;;;;;;;5013068;28;20053;-67
2022/05/01 07:07:12;;;;;;;12.30;7.45;;;;;;;;;;5022758;28;20494;-66
2022/05/01 07:09:38;;;;;;;11.73;7.30;;;;;;;;;;5030582;28;20033;-65
2022/05/01 07:12:04;;;;;;;11.05;7.53;;;;;;;;;;5024560;28;20041;-67
2022/05/01 07:14:30;;;;;;;11.38;7.55;;;;;;;;;;5012078;28;20053;-68
2022/05/01 07:16:55;;;;;;;13.27;7.68;;;;;;;;;;5029797;28;20267;-66
2022/05/01 07:19:21;;;;;;;15.45;7.57;;;;;;;;;;5024256;28;20030;-67
2022/05/01 07:21:46;;;;;;;14.32;7.25;;;;;;;;;;5032129;28;20399;-66
2022/05/01 07:24:12;;;;;;;12.13;7.22;;;;;;;;;;5030604;28;20479;-64
2022/05/01 07:26:37;;;;;;;11.05;7.18;;;;;;;;;;5032853;28;20103;-65
2022/05/01 07:29:03;;;;;;;11.25;7.22;;;;;;;;;;5028395;28;20052;-65
2022/05/01 07:31:29;;;;;;;9.98;6.90;;;;;;;;;;5051041;28;20140;-66
2022/05/01 07:33:58;;;;;;;11.77;6.88;;;;;;;;;;5038585;28;20531;-65
2022/05/01 07:36:32;;;;;;;11.20;7.20;;;;;;;;;;5030394;28;20034;-66
2022/05/01 07:38:58;;;;;;;14.10;7.57;;;;;;;;;;5021619;28;20033;-66
2022/05/01 07:41:24;;;;;;;13.57;7.53;;;;;;;;;;5012510;28;20037;-65
2022/05/01 07:43:49;;;;;;;11.45;7.45;;;;;;;;;;5042639;28;20142;-65
2022/05/01 07:46:15;;;;;;;11.15;7.07;;;;;;;;;;5042869;28;20028;-65
2022/05/01 07:48:40;;;;;;;11.20;7.10;;;;;;;;;;5037190;28;20108;-65
2022/05/01 07:51:06;;;;;;;11.95;7.53;;;;;;;;;;5025013;28;20025;-65
2022/05/01 07:53:34;;;;;;;13.02;7.40;;;;;;;;;;5044103;28;20389;-66
2022/05/01 07:56:00;;;;;;;10.20;7.13;;;;;;;;;;5046007;28;20555;-66
2022/05/01 07:58:26;;;;;;;9.93;7.20;;;;;;;;;;5038844;28;20040;-65
2022/05/01 08:00:53;;;;;;;11.85;7.70;;;;;;;;;;5050952;28;20029;-66
2022/05/01 08:06:03;;;;;;;11.73;6.70;;;;;;;;;;5031282;28;20397;-67
2022/05/01 08:08:33;;;;;;;10.93;7.25;;;;;;;;;;5018955;28;20044;-66
2022/05/01 08:11:01;;;;;;;9.50;6.95;;;;;;;;;;5020796;28;20501;-67
2022/05/01 08:13:26;;;;;;;10.45;7.45;;;;;;;;;;5049148;28;20029;-67
2022/05/01 08:15:52;;;;;;;9.70;7.18;;;;;;;;;;5037843;28;20079;-65
2022/05/01 08:21:10;;;;;;;12.48;6.88;;;;;;;;;;5031696;28;20031;-65
2022/05/01 08:23:39;;;;;;;12.65;7.25;;;;;;;;;;5033250;28;20506;-64
2022/05/01 08:26:06;;;;;;;9.27;6.90;;;;;;;;;;5035924;28;20094;-65
2022/05/01 08:28:36;;;;;;;11.02;7.60;;;;;;;;;;5048838;28;20029;-66
2022/05/01 08:31:03;;;;;;;11.05;7.30;;;;;;;;;;5036480;28;20643;-65
2022/05/01 08:33:29;;;;;;;12.27;8.07;;;;;;;;;;5034599;28;20056;-65
2022/05/01 08:35:55;;;;;;;10.00;7.80;;;;;;;;;;5037987;28;20029;-65
2022/05/01 08:38:21;;;;;;;9.90;7.80;;;;;;;;;;5035575;28;20069;-64
2022/05/01 08:40:48;;;;;;;11.93;7.97;;;;;;;;;;5034785;28;20080;-64
2022/05/01 08:43:21;;;;;;;10.90;7.63;;;;;;;;;;5046603;28;20100;-65
2022/05/01 08:45:52;;;;;;;11.20;7.80;;;;;;;;;;5049803;28;20032;-65
2022/05/01 08:48:27;;;;;;;11.43;7.20;;;;;;;;;;5034249;28;20029;-66
2022/05/01 08:50:55;;;;;;;10.43;7.45;;;;;;;;;;5029874;28;20029;-66
2022/05/01 08:53:22;;;;;;;10.02;7.28;;;;;;;;;;5025124;28;20033;-67
2022/05/01 08:55:48;;;;;;;9.98;7.13;;;;;;;;;;5033968;28;20494;-66
2022/05/01 08:58:15;;;;;;;8.65;6.80;;;;;;;;;;5050766;28;20339;-66
2022/05/01 09:00:41;;;;;;;10.50;7.00;;;;;;;;;;5024597;28;20037;-65
2022/05/01 09:03:07;;;;;;;9.98;6.57;;;;;;;;;;5032762;28;20024;-65
2022/05/01 09:05:33;;;;;;;11.00;7.10;;;;;;;;;;5046748;28;20033;-67
2022/05/01 09:07:58;;;;;;;10.35;7.10;;;;;;;;;;5038228;28;20037;-66
2022/05/01 09:10:29;;;;;;;10.48;6.20;;;;;;;;;;5039488;28;20074;-66
2022/05/01 09:12:54;;;;;;;11.13;6.75;;;;;;;;;;5045506;28;20025;-66
2022/05/01 09:15:36;;;;;;;11.77;6.95;;;;;;;;;;5032078;28;20052;-67
2022/05/01 09:18:09;;;;;;;8.48;6.35;;;;;;;;;;5036906;28;20446;-66
2022/05/01 09:20:38;;;;;;;11.18;6.95;;;;;;;;;;5043294;28;20124;-66
2022/05/01 09:23:05;;;;;;;10.40;6.78;;;;;;;;;;5052377;28;20094;-66
2022/05/01 09:25:32;;;;;;;15.45;6.68;;;;;;;;;;5047370;28;20029;-67
2022/05/01 09:28:01;;;;;;;9.13;6.32;;;;;;;;;;5013528;28;20176;-66
2022/05/01 09:30:36;;;;;;;9.30;6.43;;;;;;;;;;5046211;28;20128;-67
2022/05/01 09:33:02;;;;;;;11.00;6.55;;;;;;;;;;5041453;28;20486;-66
2022/05/01 09:35:31;;;;;;;7.70;5.70;;;;;;;;;;5023183;28;20029;-66
2022/05/01 09:38:09;;;;;;;11.07;6.40;;;;;;;;;;5035770;28;20036;-66
2022/05/01 09:40:34;;;;;;;8.27;5.60;;;;;;;;;;5035405;28;20032;-67
2022/05/01 09:43:00;;;;;;;11.23;5.75;;;;;;;;;;5036600;28;20033;-65
2022/05/01 09:45:31;;;;;;;10.43;6.28;;;;;;;;;;5041302;28;20440;-65
2022/05/01 09:47:57;;;;;;;9.40;5.90;;;;;;;;;;5039629;28;20476;-67
2022/05/01 09:50:49;;;;;;;7.93;6.38;;;;;;;;;;5044319;28;20140;-66
2022/05/01 09:53:14;;;;;;;7.90;5.88;;;;;;;;;;5027879;28;20502;-66
2022/05/01 09:55:40;;;;;;;9.00;5.72;;;;;;;;;;5028125;28;20025;-65
2022/05/01 09:58:12;;;;;;;9.10;5.93;;;;;;;;;;5049244;28;20039;-66
2022/05/01 10:00:44;;;;;;;7.53;5.90;;;;;;;;;;5033034;28;20029;-66
2022/05/01 10:03:26;;;;;;;8.27;6.03;;;;;;;;;;5030027;28;20029;-65
2022/05/01 10:05:53;;;;;;;11.02;6.70;;;;;;;;;;5033542;28;20118;-64
2022/05/01 10:08:20;;;;;;;8.77;6.68;;;;;;;;;;5030360;28;20041;-64
2022/05/01 10:10:47;;;;;;;7.97;6.53;;;;;;;;;;5024703;28;20375;-65
2022/05/01 10:13:13;;;;;;;11.73;7.20;;;;;;;;;;5032350;28;20040;-67
2022/05/01 10:15:39;;;;;;;10.30;7.22;;;;;;;;;;5032214;28;20045;-64
2022/05/01 10:18:05;;;;;;;11.02;7.13;;;;;;;;;;5030810;28;20034;-65
2022/05/01 10:20:34;;;;;;;11.23;7.40;;;;;;;;;;5037941;28;20028;-66
2022/05/01 10:23:02;;;;;;;10.10;7.05;;;;;;;;;;5033554;28;20033;-64
2022/05/01 10:25:32;;;;;;;12.02;6.93;;;;;;;;;;5041951;28;20033;-67
2022/05/01 10:28:36;;;;;;;9.03;5.67;;;;;;;;;;5025396;28;20032;-66
2022/05/01 10:34:17;;;;;;;7.80;5.07;;;;;;;;;;5031605;28;20434;-66
2022/05/01 10:37:00;;;;;;;6.75;5.32;;;;;;;;;;5025755;28;20029;-66
2022/05/01 10:39:34;;;;;;;8.02;4.85;;;;;;;;;;5022171;28;20063;-68
2022/05/01 10:42:00;;;;;;;5.43;4.20;;;;;;;;;;5051827;28;20089;-67
2022/05/01 10:44:36;;;;;;;7.78;4.60;;;;;;;;;;5044160;28;20040;-68
2022/05/01 10:47:17;;;;;;;6.75;4.50;;;;;;;;;;5035149;28;20411;-66
2022/05/01 10:49:47;;;;;;;7.03;4.32;;;;;;;;;;5016145;28;20497;-66
2022/05/01 10:52:23;;;;;;;7.88;4.80;;;;;;;;;;5028770;28;20037;-66
2022/05/01 10:54:50;;;;;;;8.52;5.30;;;;;;;;;;5024347;28;20037;-65
2022/05/01 10:57:17;;;;;;;7.72;5.13;;;;;;;;;;5034954;28;20481;-66
2022/05/01 10:59:48;;;;;;;7.55;5.25;;;;;;;;;;5033568;28;20052;-66
2022/05/01 11:02:25;;;;;;;8.75;5.70;;;;;;;;;;5036470;28;20149;-66
2022/05/01 11:04:52;;;;;;;7.95;6.10;;;;;;;;;;5052483;28;20033;-65
2022/05/01 11:07:18;;;;;;;9.93;5.65;;;;;;;;;;5049734;28;20483;-67
2022/05/01 11:09:45;;;;;;;8.88;5.78;;;;;;;;;;5051980;28;20036;-67
2022/05/01 11:12:13;;;;;;;7.55;5.95;;;;;;;;;;5037217;28;20025;-66
2022/05/01 11:14:53;;;;;;;8.70;5.90;;;;;;;;;;5017193;28;20169;-67
2022/05/01 11:17:36;;;;;;;9.63;5.78;;;;;;;;;;5051301;28;20459;-67
2022/05/01 11:20:10;;;;;;;7.82;5.30;;;;;;;;;;5044260;28;20025;-66
2022/05/01 11:22:36;;;;;;;8.63;5.88;;;;;;;;;;5030749;28;20115;-66
2022/05/01 11:25:03;;;;;;;7.35;5.90;;;;;;;;;;5048718;28;20083;-66
2022/05/01 11:27:49;;;;;;;9.45;6.00;;;;;;;;;;5047847;28;20051;-67
2022/05/01 11:30:23;;;;;;;9.40;6.47;;;;;;;;;;5033807;28;20117;-67
2022/05/01 11:32:52;;;;;;;8.90;5.93;;;;;;;;;;5052296;28;20024;-67
2022/05/01 11:35:19;;;;;;;8.98;6.60;;;;;;;;;;5050618;28;20035;-67
2022/05/01 11:37:59;;;;;;;8.63;5.85;;;;;;;;;;5047341;28;20040;-67
2022/05/01 11:40:28;;;;;;;7.25;6.10;;;;;;;;;;5049638;28;20037;-66
2022/05/01 11:43:19;;;;;;;10.40;6.68;;;;;;;;;;5045213;28;20068;-64
2022/05/01 11:45:46;;;;;;;8.80;6.20;;;;;;;;;;5045829;28;20395;-68
2022/05/01 11:48:17;;;;;;;8.20;6.10;;;;;;;;;;5032196;28;20037;-67
2022/05/01 11:50:43;;;;;;;8.23;6.10;;;;;;;;;;5039649;28;20033;-67
2022/05/01 11:53:27;;;;;;;9.20;6.43;;;;;;;;;;5047718;28;20037;-60
2022/05/01 12:04:37;;;;;;;10.63;6.72;;;;;;;;;;5030789;28;20080;-60
2022/05/01 12:07:17;;;;;;;10.18;6.40;;;;;;;;;;5011271;28;20038;-60
2022/05/01 12:09:44;;;;;;;8.97;6.70;;;;;;;;;;5011970;28;20391;-60
2022/05/01 12:12:12;;;;;;;9.35;6.50;;;;;;;;;;5010879;28;20362;-60
2022/05/01 12:14:42;;;;;;;10.30;7.18;;;;;;;;;;5009885;28;20387;-61
2022/05/01 12:17:14;;;;;;;9.85;6.90;;;;;;;;;;5010673;28;20080;-60
2022/05/01 12:19:44;;;;;;;8.82;6.28;;;;;;;;;;5019498;28;20107;-60
2022/05/01 12:22:19;;;;;;;8.48;6.22;;;;;;;;;;5034540;28;20473;-59
2022/05/01 12:24:47;;;;;;;9.90;6.20;;;;;;;;;;5022190;28;20042;-59
2022/05/01 12:27:13;;;;;;;8.85;6.47;;;;;;;;;;5022700;28;20065;-59
2022/05/01 12:29:52;;;;;;;8.98;6.78;;;;;;;;;;5038758;28;20483;-60
2022/05/01 12:32:17;;;;;;;9.85;7.13;;;;;;;;;;5038080;28;20029;-60
2022/05/01 12:34:49;;;;;;;8.55;5.40;;;;;;;;;;5044855;28;20033;-60
2022/05/01 12:37:17;;;;;;;7.53;4.93;;;;;;;;;;5034732;28;20032;-61
2022/05/01 12:39:54;;;;;;;6.85;5.20;;;;;;;;;;5047060;28;20036;-60
2022/05/01 12:45:09;;;;;;;7.80;5.38;;;;;;;;;;5044462;28;20456;-60
2022/05/01 12:47:38;;;;;;;9.27;5.53;;;;;;;;;;5047628;28;20041;-60
2022/05/01 12:50:19;;;;;;;8.13;5.05;;;;;;;;;;5045976;28;20029;-61
2022/05/01 12:52:50;;;;;;;8.00;5.22;;;;;;;;;;5045565;28;20033;-60
2022/05/01 12:55:17;;;;;;;;;;;;;;;;;;5037198;28;20068;-61
2022/05/01 12:57:49;;;;;;;7.93;5.35;;;;;;;;;;5045553;28;19917;-60
2022/05/01 13:00:41;;;;;;;7.68;5.32;;;;;;;;;;5029257;28;20037;-60
2022/05/01 13:03:17;;;;;;;9.02;5.35;;;;;;;;;;5025649;28;20030;-60
2022/05/01 13:05:55;;;;;;;9.02;5.70;;;;;;;;;;5009637;28;20092;-60
2022/05/01 13:08:20;;;;;;;9.65;5.78;;;;;;;;;;5029656;28;20175;-60
2022/05/01 13:11:07;;;;;;;7.43;5.55;;;;;;;;;;5051130;28;20116;-60
2022/05/01 13:13:52;;;;;;;7.95;5.90;;;;;;;;;;5047601;28;20067;-60
2022/05/01 13:16:31;;;;;;;9.55;5.65;;;;;;;;;;5052647;28;20072;-60
2022/05/01 13:19:10;;;;;;;8.10;5.80;;;;;;;;;;5054299;28;20437;-60
2022/05/01 13:21:53;;;;;;;7.07;5.18;;;;;;;;;;5046034;28;20057;-60
2022/05/01 13:24:23;;;;;;;10.13;6.30;;;;;;;;;;5049284;28;20060;-61
2022/05/01 13:26:51;;;;;;;12.05;6.97;;;;;;;;;;5032050;28;20042;-60
2022/05/01 13:29:17;;;;;;;9.90;7.03;;;;;;;;;;5032597;28;20128;-60
2022/05/01 13:31:43;;;;;;;9.00;6.65;;;;;;;;;;5031567;28;20034;-60
2022/05/01 13:34:09;;;;;;;10.82;6.88;;;;;;;;;;5022484;28;20050;-60
2022/05/01 13:36:37;;;;;;;9.75;6.45;;;;;;;;;;5032076;28;20122;-60
2022/05/01 13:39:06;;;;;;;8.25;6.30;;;;;;;;;;5019296;28;20099;-65
2022/05/01 13:47:00;;;;;;;8.05;6.20;;;;;;;;;;5046003;28;20043;-65
2022/05/01 13:49:26;;;;;;;8.35;6.28;;;;;;;;;;5053650;28;20040;-67
2022/05/01 13:51:52;;;;;;;9.55;6.50;;;;;;;;;;5050817;28;20033;-68
2022/05/01 13:54:18;;;;;;;8.38;6.15;;;;;;;;;;5053136;28;20036;-67
2022/05/01 13:56:44;;;;;;;8.50;6.75;;;;;;;;;;5046789;28;20136;-66
2022/05/01 13:59:14;;;;;;;16.13;6.93;;;;;;;;;;5038140;28;20040;-65
2022/05/01 14:01:40;;;;;;;9.48;6.30;;;;;;;;;;5031990;28;20041;-67
2022/05/01 14:04:06;;;;;;;10.18;6.80;;;;;;;;;;5039619;28;20032;-65
2022/05/01 14:06:32;;;;;;;10.50;6.20;;;;;;;;;;5042590;28;20087;-66
2022/05/01 14:08:58;;;;;;;7.40;6.20;;;;;;;;;;5024813;28;20468;-67
2022/05/01 14:11:26;;;;;;;9.70;6.35;;;;;;;;;;5013118;28;20037;-68
2022/05/01 14:13:52;;;;;;;10.57;6.03;;;;;;;;;;5013537;28;20041;-68
2022/05/01 14:16:18;;;;;;;8.80;5.85;;;;;;;;;;5012717;28;20030;-68
2022/05/01 14:18:45;;;;;;;10.68;5.82;;;;;;;;;;5013730;28;20026;-66
2022/05/01 14:21:16;;;;;;;10.82;6.47;;;;;;;;;;5029192;28;20082;-66
2022/05/01 14:23:41;;;;;;;8.63;6.00;;;;;;;;;;5032978;28;20053;-66
2022/05/01 14:26:06;;;;;;;9.23;5.72;;;;;;;;;;5017341;28;20061;-67
2022/05/01 14:28:33;;;;;;;8.20;5.88;;;;;;;;;;5013005;28;20029;-67
2022/05/01 14:31:16;;;;;;;9.10;5.68;;;;;;;;;;5012579;28;20376;-66
2022/05/01 14:34:04;;;;;;;9.07;5.40;;;;;;;;;;5013310;28;20038;-66
2022/05/01 14:36:35;;;;;;;9.05;5.78;;;;;;;;;;5015475;28;20038;-66
2022/05/01 14:39:07;;;;;;;9.45;5.30;;;;;;;;;;5032513;28;20030;-66
2022/05/01 14:41:33;;;;;;;9.73;6.03;;;;;;;;;;5033179;28;20116;-67
2022/05/01 14:44:03;;;;;;;7.57;5.50;;;;;;;;;;5018385;28;20487;-66
2022/05/01 14:46:34;;;;;;;9.93;6.07;;;;;;;;;;5035147;28;20060;-66
2022/05/01 14:49:30;;;;;;;9.60;5.90;;;;;;;;;;5048724;28;20609;-66
2022/05/01 14:52:01;;;;;;;11.82;5.65;;;;;;;;;;5030638;28;20029;-67
2022/05/01 14:54:28;;;;;;;9.38;5.95;;;;;;;;;;5035511;28;20033;-67
2022/05/01 14:56:57;;;;;;;8.60;5.70;;;;;;;;;;5034564;28;20033;-66
2022/05/01 15:07:48;;;;;;;8.65;5.70;;;;;;;;;;5038450;28;20087;-66
2022/05/01 15:10:13;;;;;;;10.02;6.13;;;;;;;;;;5047374;28;20025;-66
2022/05/01 15:12:39;;;;;;;9.73;6.60;;;;;;;;;;5032894;28;20037;-66
2022/05/01 15:15:05;;;;;;;11.65;6.18;;;;;;;;;;5035039;28;20029;-64
2022/05/01 15:17:36;;;;;;;9.25;6.22;;;;;;;;;;5030518;28;20029;-65
2022/05/01 15:20:18;;;;;;;10.00;6.05;;;;;;;;;;5032360;28;20040;-66
2022/05/01 15:22:51;;;;;;;10.05;5.90;;;;;;;;;;5032484;28;20084;-68
2022/05/01 15:25:30;;;;;;;8.45;6.25;;;;;;;;;;5032021;28;20081;-65
2022/05/01 15:28:04;;;;;;;9.40;5.90;;;;;;;;;;5030907;28;20030;-68
2022/05/01 15:30:42;;;;;;;9.70;6.10;;;;;;;;;;5032081;28;20033;-67
2022/05/01 15:36:04;;;;;;;9.48;5.85;;;;;;;;;;5032372;28;20390;-67